Time;durP1;ratioP1;P1;durP2;ratioP2;P2;SDS_P1;SDS_P2;PMS_P1;PMS_P2;Temp;Humidity;BMP_temperature;BMP_pressure;BME280_temperature;BME280_humidity;BME280_pressure;Samples;Min_cycle;Max_cycle;Signal;HPM_P1;HPM_P2
2021/08/14 00:01:01;;;;;;;11.75;6.88;;;;;;;;;;5079101;28;20056;-79
2021/08/14 00:03:28;;;;;;;10.05;6.60;;;;;;;;;;5079422;28;20052;-80
2021/08/14 00:05:55;;;;;;;8.65;6.43;;;;;;;;;;5080410;28;20041;-80
2021/08/14 00:08:21;;;;;;;9.27;5.88;;;;;;;;;;5076347;28;20102;-79
2021/08/14 00:10:48;;;;;;;9.57;6.60;;;;;;;;;;5084660;28;20082;-81
2021/08/14 00:13:16;;;;;;;9.93;6.88;;;;;;;;;;5081110;28;20056;-81
2021/08/14 00:15:43;;;;;;;8.45;5.72;;;;;;;;;;5075605;28;20044;-79
2021/08/14 00:18:10;;;;;;;8.55;6.35;;;;;;;;;;5081806;28;20452;-79
2021/08/14 00:20:37;;;;;;;8.90;6.28;;;;;;;;;;5081404;28;20052;-80
2021/08/14 00:23:04;;;;;;;7.78;6.22;;;;;;;;;;5081866;28;20059;-80
2021/08/14 00:25:31;;;;;;;9.80;6.15;;;;;;;;;;5094612;28;20098;-81
2021/08/14 00:27:58;;;;;;;9.63;6.55;;;;;;;;;;5092790;28;20075;-81
2021/08/14 00:30:28;;;;;;;9.85;5.93;;;;;;;;;;5084918;28;20056;-82
2021/08/14 00:32:55;;;;;;;9.55;6.38;;;;;;;;;;5079875;28;20052;-80
2021/08/14 00:35:23;;;;;;;12.15;6.60;;;;;;;;;;5086235;28;20049;-81
2021/08/14 00:37:53;;;;;;;8.57;6.00;;;;;;;;;;5078021;28;20053;-81
2021/08/14 00:40:20;;;;;;;;;;;;;;;;;;5079023;28;20048;-80
2021/08/14 00:42:47;;;;;;;7.68;6.05;;;;;;;;;;5076502;28;19921;-79
2021/08/14 00:45:14;;;;;;;9.65;6.20;;;;;;;;;;5073888;28;20110;-81
2021/08/14 00:47:42;;;;;;;8.52;6.57;;;;;;;;;;5074760;28;20059;-80
2021/08/14 00:50:11;;;;;;;9.73;5.88;;;;;;;;;;5074408;28;20098;-80
2021/08/14 00:52:38;;;;;;;7.82;5.93;;;;;;;;;;5073659;28;20098;-80
2021/08/14 00:55:05;;;;;;;9.02;6.50;;;;;;;;;;5074307;28;20106;-81
2021/08/14 00:57:32;;;;;;;9.00;6.13;;;;;;;;;;5074991;28;20106;-81
2021/08/14 00:59:59;;;;;;;8.32;6.07;;;;;;;;;;5075114;28;20405;-81
2021/08/14 01:02:26;;;;;;;8.77;6.25;;;;;;;;;;5075375;28;20109;-80
2021/08/14 01:04:54;;;;;;;9.20;6.80;;;;;;;;;;5077962;28;20409;-81
2021/08/14 01:07:21;;;;;;;9.63;6.35;;;;;;;;;;5082926;28;20044;-80
2021/08/14 01:09:48;;;;;;;9.40;5.95;;;;;;;;;;5084501;28;20048;-79
2021/08/14 01:12:16;;;;;;;9.80;6.03;;;;;;;;;;5076858;28;20455;-80
2021/08/14 01:14:44;;;;;;;9.50;6.43;;;;;;;;;;5075969;28;20132;-80
2021/08/14 01:17:11;;;;;;;11.23;6.30;;;;;;;;;;5078173;28;20045;-80
2021/08/14 01:19:38;;;;;;;9.15;6.45;;;;;;;;;;5077443;28;20106;-81
2021/08/14 01:22:10;;;;;;;9.25;6.10;;;;;;;;;;5075331;28;20045;-80
2021/08/14 01:24:37;;;;;;;9.85;6.60;;;;;;;;;;5074633;28;20052;-81
2021/08/14 01:27:05;;;;;;;9.40;6.22;;;;;;;;;;5074442;28;20044;-81
2021/08/14 01:29:33;;;;;;;10.60;6.68;;;;;;;;;;5075011;28;20049;-81
2021/08/14 01:32:00;;;;;;;8.95;6.10;;;;;;;;;;5074978;28;20057;-81
2021/08/14 01:34:27;;;;;;;7.40;5.78;;;;;;;;;;5074938;28;20041;-80
2021/08/14 01:36:54;;;;;;;9.68;6.57;;;;;;;;;;5073506;28;20090;-81
2021/08/14 01:39:20;;;;;;;9.60;6.25;;;;;;;;;;5073591;28;20101;-80
2021/08/14 01:41:57;;;;;;;8.77;6.10;;;;;;;;;;5073712;28;20094;-80
2021/08/14 01:45:03;;;;;;;9.35;6.28;;;;;;;;;;5072986;28;20048;-80
2021/08/14 01:47:31;;;;;;;11.70;6.43;;;;;;;;;;5070087;28;20076;-80
2021/08/14 01:49:58;;;;;;;8.82;6.30;;;;;;;;;;5073626;28;20448;-80
2021/08/14 01:52:24;;;;;;;10.57;6.57;;;;;;;;;;5073258;28;20558;-81
2021/08/14 01:54:51;;;;;;;6.85;6.07;;;;;;;;;;5073311;28;20048;-80
2021/08/14 01:57:18;;;;;;;8.30;6.60;;;;;;;;;;5073269;28;20048;-80
2021/08/14 01:59:45;;;;;;;9.00;6.88;;;;;;;;;;5073230;28;20422;-80
2021/08/14 02:02:13;;;;;;;8.80;6.22;;;;;;;;;;5073537;28;20045;-81
2021/08/14 02:04:41;;;;;;;8.85;6.65;;;;;;;;;;5073699;28;20094;-80
2021/08/14 02:07:08;;;;;;;8.07;6.43;;;;;;;;;;5072378;28;20088;-80
2021/08/14 02:09:34;;;;;;;8.10;6.38;;;;;;;;;;5073339;28;20094;-80
2021/08/14 02:12:01;;;;;;;7.68;6.00;;;;;;;;;;5073457;28;20452;-80
2021/08/14 02:14:28;;;;;;;10.13;6.18;;;;;;;;;;5073488;28;20562;-80
2021/08/14 02:16:54;;;;;;;9.25;6.80;;;;;;;;;;5072688;28;20045;-79
2021/08/14 02:19:21;;;;;;;8.40;6.47;;;;;;;;;;5073614;28;20389;-80
2021/08/14 02:21:49;;;;;;;8.10;6.45;;;;;;;;;;5072912;28;20041;-79
2021/08/14 02:24:16;;;;;;;9.23;6.28;;;;;;;;;;5073185;28;20327;-80
2021/08/14 02:26:43;;;;;;;8.00;6.93;;;;;;;;;;5072378;28;20071;-79
2021/08/14 02:29:10;;;;;;;10.07;7.35;;;;;;;;;;5073696;28;20048;-81
2021/08/14 02:31:36;;;;;;;9.88;7.22;;;;;;;;;;5072927;28;20095;-79
2021/08/14 02:34:03;;;;;;;8.75;6.20;;;;;;;;;;5073359;28;20582;-79
2021/08/14 02:36:30;;;;;;;8.20;6.97;;;;;;;;;;5072254;28;20040;-80
2021/08/14 02:38:58;;;;;;;10.15;7.55;;;;;;;;;;5112428;22;20137;-83
2021/08/14 02:41:30;;;;;;;9.25;6.60;;;;;;;;;;5104417;28;20453;-83
2021/08/14 02:44:12;;;;;;;9.45;6.82;;;;;;;;;;5103811;28;20040;-82
2021/08/14 02:46:42;;;;;;;8.77;6.97;;;;;;;;;;5105092;28;20048;-83
2021/08/14 02:49:08;;;;;;;9.07;6.43;;;;;;;;;;5104580;28;20055;-83
2021/08/14 02:51:35;;;;;;;7.55;6.43;;;;;;;;;;5108595;28;20041;-82
2021/08/14 02:54:03;;;;;;;9.60;7.05;;;;;;;;;;5104375;28;20043;-82
2021/08/14 02:56:33;;;;;;;8.45;6.50;;;;;;;;;;5106093;28;20074;-83
2021/08/14 02:59:03;;;;;;;12.77;6.72;;;;;;;;;;5101578;28;20569;-83
2021/08/14 03:01:35;;;;;;;;;;;;;;;;;;5100801;28;20101;-84
2021/08/14 03:04:05;;;;;;;8.27;6.70;;;;;;;;;;5099368;28;20334;-82
2021/08/14 03:06:32;;;;;;;10.25;6.72;;;;;;;;;;5114472;28;20040;-84
2021/08/14 03:09:00;;;;;;;8.38;6.32;;;;;;;;;;5120494;27;20032;-83
2021/08/14 03:11:28;;;;;;;8.70;6.50;;;;;;;;;;5100313;28;20086;-82
2021/08/14 03:13:58;;;;;;;7.72;5.97;;;;;;;;;;5097028;28;20048;-84
2021/08/14 03:16:24;;;;;;;9.77;6.97;;;;;;;;;;5097830;28;20044;-83
2021/08/14 03:18:51;;;;;;;9.52;6.75;;;;;;;;;;5098800;28;20554;-84
2021/08/14 03:21:18;;;;;;;7.18;6.07;;;;;;;;;;5101398;28;20442;-82
2021/08/14 03:23:45;;;;;;;9.15;6.63;;;;;;;;;;5098299;28;20165;-82
2021/08/14 03:26:11;;;;;;;8.20;6.82;;;;;;;;;;5097050;28;20511;-83
2021/08/14 03:28:41;;;;;;;9.20;6.43;;;;;;;;;;5097606;28;20040;-82
2021/08/14 03:31:08;;;;;;;7.03;6.20;;;;;;;;;;5103677;28;20048;-84
2021/08/14 03:33:35;;;;;;;8.75;6.30;;;;;;;;;;5097763;28;20101;-84
2021/08/14 03:36:03;;;;;;;8.95;6.40;;;;;;;;;;5096817;28;20048;-84
2021/08/14 03:38:29;;;;;;;9.15;7.10;;;;;;;;;;5099055;28;20129;-84
2021/08/14 03:40:56;;;;;;;8.75;6.43;;;;;;;;;;5097574;28;20040;-84
2021/08/14 03:43:23;;;;;;;9.45;6.45;;;;;;;;;;5097910;28;20043;-82
2021/08/14 03:45:53;;;;;;;7.38;6.40;;;;;;;;;;5097419;28;20044;-82
2021/08/14 03:48:19;;;;;;;;;;;;;;;;;;5097984;28;20081;-83
2021/08/14 03:50:46;;;;;;;8.65;6.30;;;;;;;;;;5100951;28;19904;-84
2021/08/14 03:53:13;;;;;;;7.75;6.43;;;;;;;;;;5108415;28;20097;-84
2021/08/14 03:55:40;;;;;;;8.45;6.55;;;;;;;;;;5111394;28;20080;-83
2021/08/14 03:58:07;;;;;;;9.20;6.30;;;;;;;;;;5110254;28;20052;-82
2021/08/14 04:00:34;;;;;;;10.82;7.03;;;;;;;;;;5109589;28;20048;-82
2021/08/14 04:03:04;;;;;;;11.25;7.18;;;;;;;;;;5105804;28;20117;-82
2021/08/14 04:05:31;;;;;;;8.52;7.32;;;;;;;;;;5105039;28;20123;-82
2021/08/14 04:07:58;;;;;;;8.70;7.80;;;;;;;;;;5106076;28;20048;-83
2021/08/14 04:10:24;;;;;;;9.82;7.97;;;;;;;;;;5104471;28;20101;-82
2021/08/14 04:12:57;;;;;;;11.43;7.28;;;;;;;;;;5103747;28;20044;-84
2021/08/14 04:15:24;;;;;;;9.55;7.65;;;;;;;;;;5105707;28;20048;-82
2021/08/14 04:17:51;;;;;;;9.48;6.93;;;;;;;;;;5105257;28;20156;-84
2021/08/14 04:20:19;;;;;;;10.10;6.88;;;;;;;;;;5105374;28;20093;-84
2021/08/14 04:22:46;;;;;;;7.82;6.75;;;;;;;;;;5104137;28;20040;-84
2021/08/14 04:25:21;;;;;;;7.95;7.07;;;;;;;;;;5105100;28;20044;-84
2021/08/14 04:27:51;;;;;;;11.68;6.93;;;;;;;;;;5099448;28;20055;-81
2021/08/14 04:30:20;;;;;;;9.88;7.05;;;;;;;;;;5100822;28;20047;-83
2021/08/14 04:32:47;;;;;;;9.18;7.32;;;;;;;;;;5099606;28;20044;-82
2021/08/14 04:35:16;;;;;;;8.00;7.13;;;;;;;;;;5101581;28;20057;-82
2021/08/14 04:37:45;;;;;;;8.50;6.63;;;;;;;;;;5101528;28;20048;-82
2021/08/14 04:40:16;;;;;;;9.68;7.45;;;;;;;;;;5102184;28;20032;-82
2021/08/14 04:42:43;;;;;;;10.48;7.80;;;;;;;;;;5105120;28;20051;-82
2021/08/14 04:45:15;;;;;;;8.77;6.72;;;;;;;;;;5101869;28;20040;-84
2021/08/14 04:47:43;;;;;;;8.73;7.75;;;;;;;;;;5103735;28;20048;-82
2021/08/14 04:50:11;;;;;;;10.48;8.02;;;;;;;;;;5104389;28;20040;-81
2021/08/14 04:52:39;;;;;;;8.63;7.35;;;;;;;;;;5104546;28;20048;-83
2021/08/14 04:55:09;;;;;;;10.43;6.88;;;;;;;;;;5101887;28;20408;-82
2021/08/14 04:57:36;;;;;;;7.55;6.70;;;;;;;;;;5102776;28;20048;-82
2021/08/14 05:00:10;;;;;;;8.10;6.38;;;;;;;;;;5099516;28;20562;-83
2021/08/14 05:02:38;;;;;;;10.18;7.10;;;;;;;;;;5115638;28;20048;-83
2021/08/14 05:05:08;;;;;;;7.97;6.45;;;;;;;;;;5120295;28;20059;-83
2021/08/14 05:07:35;;;;;;;8.30;6.95;;;;;;;;;;5119623;28;20047;-84
2021/08/14 05:10:03;;;;;;;8.85;6.47;;;;;;;;;;5117794;28;20054;-83
2021/08/14 05:12:31;;;;;;;9.77;7.00;;;;;;;;;;5117268;28;20051;-83
2021/08/14 05:15:00;;;;;;;7.63;6.68;;;;;;;;;;5118756;28;20047;-82
2021/08/14 05:17:28;;;;;;;10.07;6.63;;;;;;;;;;5117362;28;20047;-84
2021/08/14 05:19:59;;;;;;;7.40;6.10;;;;;;;;;;5119329;28;20044;-82
2021/08/14 05:22:26;;;;;;;9.93;6.65;;;;;;;;;;5121792;28;20047;-81
2021/08/14 05:24:53;;;;;;;9.43;6.93;;;;;;;;;;5125663;28;20047;-82
2021/08/14 05:27:20;;;;;;;8.65;5.90;;;;;;;;;;5120461;28;20047;-82
2021/08/14 05:29:48;;;;;;;9.15;7.05;;;;;;;;;;5117979;28;20050;-82
2021/08/14 05:32:15;;;;;;;9.57;7.32;;;;;;;;;;5117632;28;20040;-82
2021/08/14 05:34:42;;;;;;;8.75;7.18;;;;;;;;;;5127037;28;20512;-83
2021/08/14 05:37:09;;;;;;;9.60;6.95;;;;;;;;;;5136592;27;20036;-81
2021/08/14 05:39:35;;;;;;;9.90;7.25;;;;;;;;;;5135849;27;20032;-82
2021/08/14 05:42:03;;;;;;;8.85;6.80;;;;;;;;;;5131215;28;20100;-82
2021/08/14 05:44:30;;;;;;;9.18;6.63;;;;;;;;;;5131220;28;20105;-84
2021/08/14 05:47:07;;;;;;;8.57;6.80;;;;;;;;;;5117943;28;20488;-82
2021/08/14 05:49:34;;;;;;;9.75;6.93;;;;;;;;;;5118126;28;20103;-84
2021/08/14 05:52:01;;;;;;;9.10;6.18;;;;;;;;;;5119587;28;20100;-83
2021/08/14 05:54:28;;;;;;;13.07;6.97;;;;;;;;;;5123262;28;20122;-82
2021/08/14 05:56:54;;;;;;;9.77;7.05;;;;;;;;;;5103185;28;20052;-81
2021/08/14 05:59:21;;;;;;;8.32;6.85;;;;;;;;;;5078687;28;20044;-82
2021/08/14 06:01:50;;;;;;;9.43;7.50;;;;;;;;;;5091784;28;20091;-82
2021/08/14 06:04:19;;;;;;;8.48;7.25;;;;;;;;;;5118350;28;20047;-82
2021/08/14 06:06:46;;;;;;;11.15;8.15;;;;;;;;;;5119517;28;20100;-82
2021/08/14 06:09:14;;;;;;;11.60;7.82;;;;;;;;;;5122461;28;20047;-81
2021/08/14 06:11:41;;;;;;;10.32;6.80;;;;;;;;;;5125897;28;20054;-81
2021/08/14 06:14:08;;;;;;;10.48;9.05;;;;;;;;;;5124114;28;20043;-82
2021/08/14 06:16:35;;;;;;;9.55;7.78;;;;;;;;;;5122778;28;20101;-82
2021/08/14 06:19:02;;;;;;;10.07;6.82;;;;;;;;;;5123574;28;20092;-82
2021/08/14 06:21:31;;;;;;;8.35;7.30;;;;;;;;;;5121348;28;20047;-81
2021/08/14 06:23:58;;;;;;;9.70;8.15;;;;;;;;;;5121281;28;20054;-82
2021/08/14 06:26:24;;;;;;;8.13;6.35;;;;;;;;;;5119991;28;20043;-81
2021/08/14 06:28:53;;;;;;;10.85;6.38;;;;;;;;;;5120725;28;20059;-84
2021/08/14 06:31:20;;;;;;;11.13;6.20;;;;;;;;;;5123083;28;20055;-84
2021/08/14 06:33:46;;;;;;;6.85;6.15;;;;;;;;;;5124707;28;20043;-83
2021/08/14 06:36:14;;;;;;;8.23;6.05;;;;;;;;;;5122634;28;20040;-83
2021/08/14 06:38:44;;;;;;;8.52;6.55;;;;;;;;;;5123117;28;20040;-84
2021/08/14 06:41:11;;;;;;;13.35;6.00;;;;;;;;;;5119543;28;20051;-84
2021/08/14 06:43:39;;;;;;;8.82;6.55;;;;;;;;;;5122011;28;20096;-86
2021/08/14 06:46:06;;;;;;;8.38;6.07;;;;;;;;;;5119827;28;20043;-85
2021/08/14 06:48:35;;;;;;;10.80;7.25;;;;;;;;;;5120933;28;20048;-81
2021/08/14 06:51:02;;;;;;;7.63;6.07;;;;;;;;;;5120163;28;20048;-82
2021/08/14 06:53:29;;;;;;;7.57;6.47;;;;;;;;;;5120660;28;20097;-82
2021/08/14 06:55:57;;;;;;;7.45;6.60;;;;;;;;;;5125276;28;20097;-81
2021/08/14 06:58:24;;;;;;;6.60;5.88;;;;;;;;;;5125919;28;20052;-81
2021/08/14 07:00:50;;;;;;;9.30;6.32;;;;;;;;;;5123175;28;20047;-81
2021/08/14 07:03:17;;;;;;;7.70;5.85;;;;;;;;;;5102814;28;20077;-81
2021/08/14 07:05:47;;;;;;;7.05;5.75;;;;;;;;;;5100824;28;20078;-81
2021/08/14 07:08:14;;;;;;;7.60;5.68;;;;;;;;;;5101029;28;20105;-83
2021/08/14 07:10:43;;;;;;;7.15;6.13;;;;;;;;;;5105232;28;20124;-83
2021/08/14 07:13:13;;;;;;;10.20;6.97;;;;;;;;;;5105354;28;20044;-83
2021/08/14 07:15:41;;;;;;;7.93;6.53;;;;;;;;;;5104321;28;20121;-83
2021/08/14 07:18:09;;;;;;;7.65;5.80;;;;;;;;;;5107365;28;20493;-83
2021/08/14 07:20:36;;;;;;;7.18;6.25;;;;;;;;;;5109594;28;20044;-83
2021/08/14 07:23:03;;;;;;;8.95;6.57;;;;;;;;;;5107132;28;20104;-83
2021/08/14 07:25:30;;;;;;;7.40;5.88;;;;;;;;;;5103493;28;20560;-83
2021/08/14 07:28:00;;;;;;;10.95;6.72;;;;;;;;;;5104651;28;20051;-83
2021/08/14 07:30:33;;;;;;;8.10;6.38;;;;;;;;;;5108397;28;20044;-83
2021/08/14 07:32:59;;;;;;;10.27;8.45;;;;;;;;;;5107752;28;20052;-82
2021/08/14 07:35:27;;;;;;;9.52;8.52;;;;;;;;;;5103321;28;20044;-83
2021/08/14 07:37:54;;;;;;;8.75;7.70;;;;;;;;;;5106883;28;20064;-82
2021/08/14 07:40:23;;;;;;;8.43;6.40;;;;;;;;;;5103587;28;20443;-82
2021/08/14 07:42:51;;;;;;;9.75;6.55;;;;;;;;;;5106509;28;20048;-82
2021/08/14 07:45:18;;;;;;;7.88;5.93;;;;;;;;;;5103396;28;20497;-82
2021/08/14 07:47:48;;;;;;;9.00;7.45;;;;;;;;;;5106159;28;20101;-81
2021/08/14 07:50:22;;;;;;;8.10;7.30;;;;;;;;;;5109572;28;20074;-83
2021/08/14 07:52:51;;;;;;;17.27;15.45;;;;;;;;;;5105268;28;20129;-83
2021/08/14 07:55:21;;;;;;;8.15;7.05;;;;;;;;;;5103852;28;20081;-83
2021/08/14 07:57:49;;;;;;;;;;;;;;;;;;5107006;28;20044;-83
2021/08/14 08:00:18;;;;;;;7.45;6.65;;;;;;;;;;5105484;28;19952;-82
2021/08/14 08:02:46;;;;;;;8.48;6.75;;;;;;;;;;5121202;28;20052;-81
2021/08/14 08:05:14;;;;;;;7.47;6.18;;;;;;;;;;5134077;27;20116;-84
2021/08/14 08:07:43;;;;;;;7.43;5.90;;;;;;;;;;5139076;28;20034;-81
2021/08/14 08:10:11;;;;;;;8.70;6.63;;;;;;;;;;5129074;28;20048;-81
2021/08/14 08:12:39;;;;;;;9.32;7.00;;;;;;;;;;5128730;28;20302;-83
2021/08/14 08:15:07;;;;;;;7.45;6.65;;;;;;;;;;5126815;28;20062;-86
2021/08/14 08:17:37;;;;;;;8.02;6.70;;;;;;;;;;5122357;28;20056;-84
2021/08/14 08:20:16;;;;;;;6.60;5.90;;;;;;;;;;5125916;28;20043;-82
2021/08/14 08:22:43;;;;;;;8.88;7.90;;;;;;;;;;5121322;28;20123;-82
2021/08/14 08:25:11;;;;;;;8.43;7.28;;;;;;;;;;5118785;28;20073;-82
2021/08/14 08:27:38;;;;;;;9.05;7.30;;;;;;;;;;5119066;28;20055;-82
2021/08/14 08:30:07;;;;;;;7.70;6.93;;;;;;;;;;5118993;28;20044;-81
2021/08/14 08:32:34;;;;;;;7.80;5.90;;;;;;;;;;5120078;28;20052;-81
2021/08/14 08:35:00;;;;;;;7.78;6.43;;;;;;;;;;5120796;28;20100;-83
2021/08/14 08:37:29;;;;;;;8.15;5.53;;;;;;;;;;5120209;28;20063;-82
2021/08/14 08:39:55;;;;;;;7.93;5.80;;;;;;;;;;5097657;22;20040;-81
2021/08/14 08:42:22;;;;;;;7.18;6.03;;;;;;;;;;5103479;28;20051;-81
2021/08/14 08:44:49;;;;;;;7.90;6.35;;;;;;;;;;5104571;28;20066;-81
2021/08/14 08:47:17;;;;;;;11.07;9.88;;;;;;;;;;5104312;28;20044;-81
2021/08/14 08:49:51;;;;;;;6.88;5.88;;;;;;;;;;5101816;28;20048;-82
2021/08/14 08:52:18;;;;;;;6.35;5.35;;;;;;;;;;5103797;28;20310;-81
2021/08/14 08:54:46;;;;;;;7.20;5.40;;;;;;;;;;5104120;28;20052;-82
2021/08/14 08:57:13;;;;;;;6.75;4.90;;;;;;;;;;5101024;28;20480;-81
2021/08/14 08:59:41;;;;;;;7.05;5.68;;;;;;;;;;5102289;28;20063;-80
2021/08/14 09:02:21;;;;;;;7.70;5.55;;;;;;;;;;5112915;28;20040;-82
2021/08/14 09:04:48;;;;;;;7.40;5.97;;;;;;;;;;5122833;28;20047;-81
2021/08/14 09:07:28;;;;;;;7.28;5.00;;;;;;;;;;5127705;28;20044;-81
2021/08/14 09:10:00;;;;;;;7.40;5.20;;;;;;;;;;5128708;28;20146;-82
2021/08/14 09:12:30;;;;;;;6.13;5.53;;;;;;;;;;5124149;28;20078;-81
2021/08/14 09:14:57;;;;;;;7.20;5.90;;;;;;;;;;5109971;28;20069;-82
2021/08/14 09:17:26;;;;;;;7.15;6.00;;;;;;;;;;5109499;28;20100;-82
2021/08/14 09:20:05;;;;;;;7.47;5.70;;;;;;;;;;5110341;28;20040;-81
2021/08/14 09:22:32;;;;;;;7.70;5.38;;;;;;;;;;5107165;28;20048;-81
2021/08/14 09:25:11;;;;;;;7.50;6.38;;;;;;;;;;5106800;28;20044;-82
2021/08/14 09:27:49;;;;;;;7.00;5.53;;;;;;;;;;5101358;28;20481;-83
2021/08/14 09:30:16;;;;;;;7.38;5.80;;;;;;;;;;5100900;28;20073;-81
2021/08/14 09:32:43;;;;;;;6.03;5.43;;;;;;;;;;5098410;28;20044;-83
2021/08/14 09:35:11;;;;;;;8.30;5.40;;;;;;;;;;5096810;28;20048;-83
2021/08/14 09:37:38;;;;;;;7.00;5.85;;;;;;;;;;5097360;28;20493;-83
2021/08/14 09:40:09;;;;;;;7.70;5.88;;;;;;;;;;5096243;28;20044;-82
2021/08/14 09:42:52;;;;;;;7.82;5.00;;;;;;;;;;5097300;28;20048;-82
2021/08/14 09:45:19;;;;;;;7.07;5.10;;;;;;;;;;5097970;28;20052;-83
2021/08/14 09:47:48;;;;;;;6.78;5.40;;;;;;;;;;5098350;28;20047;-82
2021/08/14 09:50:15;;;;;;;7.53;5.38;;;;;;;;;;5101294;28;20044;-82
2021/08/14 09:52:42;;;;;;;6.68;5.53;;;;;;;;;;5102100;28;20040;-81
2021/08/14 09:55:21;;;;;;;6.60;5.90;;;;;;;;;;5103963;28;20099;-81
2021/08/14 09:57:59;;;;;;;8.93;6.18;;;;;;;;;;5105791;28;20052;-81
2021/08/14 10:00:26;;;;;;;6.72;5.45;;;;;;;;;;5105433;28;20056;-82
2021/08/14 10:02:53;;;;;;;7.28;5.72;;;;;;;;;;5120767;28;20454;-81
2021/08/14 10:05:21;;;;;;;7.57;6.10;;;;;;;;;;5124419;28;20048;-81
2021/08/14 10:07:48;;;;;;;6.38;5.75;;;;;;;;;;5124681;28;20130;-81
2021/08/14 10:10:16;;;;;;;8.20;6.13;;;;;;;;;;5124413;28;20055;-81
2021/08/14 10:12:43;;;;;;;8.13;5.80;;;;;;;;;;5115687;28;20044;-81
2021/08/14 10:15:11;;;;;;;8.30;5.85;;;;;;;;;;5103169;28;20044;-81
2021/08/14 10:17:39;;;;;;;6.68;5.75;;;;;;;;;;5102744;28;20089;-81
2021/08/14 10:20:07;;;;;;;7.30;5.57;;;;;;;;;;5103251;28;20094;-81
2021/08/14 10:22:33;;;;;;;7.80;5.93;;;;;;;;;;5103839;28;20405;-82
2021/08/14 10:25:00;;;;;;;9.52;6.38;;;;;;;;;;5102741;28;20074;-81
2021/08/14 10:27:31;;;;;;;7.63;5.85;;;;;;;;;;5102688;28;20047;-81
2021/08/14 10:29:59;;;;;;;8.98;6.38;;;;;;;;;;5102784;28;20483;-80
2021/08/14 10:32:47;;;;;;;7.90;6.28;;;;;;;;;;5101935;28;20044;-81
2021/08/14 10:35:39;;;;;;;6.97;5.72;;;;;;;;;;5101640;28;20058;-82
2021/08/14 10:38:38;;;;;;;6.40;5.47;;;;;;;;;;5106026;28;20058;-80
2021/08/14 10:41:04;;;;;;;7.75;6.40;;;;;;;;;;5118367;28;20107;-81
2021/08/14 10:44:01;;;;;;;7.82;5.95;;;;;;;;;;5105951;28;20048;-81
2021/08/14 10:46:39;;;;;;;8.00;6.40;;;;;;;;;;5098579;28;20506;-82
2021/08/14 10:49:08;;;;;;;8.10;6.45;;;;;;;;;;5098061;28;20473;-80
2021/08/14 10:52:12;;;;;;;9.00;6.77;;;;;;;;;;5113392;28;20043;-81
2021/08/14 10:55:18;;;;;;;9.18;6.72;;;;;;;;;;5109982;28;20048;-82
2021/08/14 10:57:52;;;;;;;7.68;6.85;;;;;;;;;;5106179;28;20048;-83
2021/08/14 11:00:28;;;;;;;8.18;6.32;;;;;;;;;;5104544;28;20391;-82
2021/08/14 11:03:02;;;;;;;8.73;6.25;;;;;;;;;;5121493;28;20047;-83
2021/08/14 11:05:29;;;;;;;8.57;6.13;;;;;;;;;;5124563;28;20054;-80
2021/08/14 11:08:00;;;;;;;7.45;5.97;;;;;;;;;;5124832;28;20609;-82
2021/08/14 11:10:32;;;;;;;6.80;5.88;;;;;;;;;;5127591;28;20078;-82
2021/08/14 11:12:59;;;;;;;6.60;5.88;;;;;;;;;;5115186;28;20070;-81
2021/08/14 11:15:28;;;;;;;6.85;6.05;;;;;;;;;;5104106;28;20101;-81
2021/08/14 11:17:57;;;;;;;7.28;6.38;;;;;;;;;;5105144;28;20059;-81
2021/08/14 11:20:38;;;;;;;7.53;6.10;;;;;;;;;;5104018;28;20105;-81
2021/08/14 11:23:23;;;;;;;8.85;6.80;;;;;;;;;;5106007;28;20044;-81
2021/08/14 11:25:50;;;;;;;7.18;5.90;;;;;;;;;;5104436;28;20048;-82
2021/08/14 11:28:22;;;;;;;6.80;5.82;;;;;;;;;;5104912;28;20101;-82
2021/08/14 11:30:56;;;;;;;7.55;6.13;;;;;;;;;;5105274;28;20045;-82
2021/08/14 11:33:24;;;;;;;9.20;6.93;;;;;;;;;;5104012;28;20044;-82
2021/08/14 11:36:02;;;;;;;9.05;6.60;;;;;;;;;;5104896;28;20048;-82
2021/08/14 11:38:33;;;;;;;7.70;5.68;;;;;;;;;;5109895;28;20052;-82
2021/08/14 11:41:02;;;;;;;6.95;6.00;;;;;;;;;;5113110;28;20040;-82
2021/08/14 11:43:44;;;;;;;6.18;5.57;;;;;;;;;;5102524;28;20048;-89
2021/08/14 11:46:12;;;;;;;6.90;6.20;;;;;;;;;;5104647;28;20052;-85
2021/08/14 11:48:41;;;;;;;7.75;6.25;;;;;;;;;;5105993;28;20123;-83
2021/08/14 11:51:17;;;;;;;7.57;6.78;;;;;;;;;;5106926;28;20070;-84
2021/08/14 11:53:44;;;;;;;9.77;6.78;;;;;;;;;;5100430;28;20044;-83
2021/08/14 11:56:13;;;;;;;7.25;6.13;;;;;;;;;;5100751;28;20044;-82
2021/08/14 11:58:40;;;;;;;9.25;7.38;;;;;;;;;;5101611;28;20052;-84
2021/08/14 12:01:09;;;;;;;8.95;6.25;;;;;;;;;;5100866;28;20048;-82
2021/08/14 12:03:37;;;;;;;8.70;6.20;;;;;;;;;;5099900;28;20048;-82
2021/08/14 12:06:08;;;;;;;6.90;5.88;;;;;;;;;;5098281;28;20048;-82
2021/08/14 12:08:37;;;;;;;7.60;6.35;;;;;;;;;;5099198;28;20067;-80
2021/08/14 12:11:05;;;;;;;7.75;6.00;;;;;;;;;;5098445;28;20048;-82
2021/08/14 12:13:32;;;;;;;7.95;6.43;;;;;;;;;;5098147;28;20113;-82
2021/08/14 12:16:13;;;;;;;6.80;5.68;;;;;;;;;;5099690;28;20055;-83
2021/08/14 12:18:43;;;;;;;7.95;6.22;;;;;;;;;;5098239;28;20075;-82
2021/08/14 12:21:11;;;;;;;7.95;5.70;;;;;;;;;;5098706;28;20044;-83
2021/08/14 12:23:39;;;;;;;6.30;5.70;;;;;;;;;;5099305;28;20048;-82
2021/08/14 12:26:07;;;;;;;6.65;5.93;;;;;;;;;;5099194;28;20044;-82
2021/08/14 12:28:36;;;;;;;8.55;5.93;;;;;;;;;;5099366;28;20040;-83
2021/08/14 12:31:15;;;;;;;7.80;6.10;;;;;;;;;;5098528;28;20048;-83
2021/08/14 12:33:48;;;;;;;;;;;;;;;;;;5096168;28;20073;-84
2021/08/14 12:36:14;;;;;;;7.65;5.70;;;;;;;;;;5098372;28;19920;-83
2021/08/14 12:38:48;;;;;;;7.15;5.72;;;;;;;;;;5096258;28;20485;-83
2021/08/14 12:41:16;;;;;;;9.40;6.05;;;;;;;;;;5094003;28;20051;-81
2021/08/14 12:43:44;;;;;;;7.43;6.00;;;;;;;;;;5095218;28;20079;-82
2021/08/14 12:46:18;;;;;;;7.28;5.80;;;;;;;;;;5094478;28;20428;-81
2021/08/14 12:49:20;;;;;;;9.57;5.93;;;;;;;;;;5095323;28;20048;-80
2021/08/14 12:52:00;;;;;;;9.25;5.53;;;;;;;;;;5094973;28;20044;-80
2021/08/14 12:54:27;;;;;;;7.25;5.85;;;;;;;;;;5095133;28;20051;-80
2021/08/14 12:56:54;;;;;;;9.65;6.25;;;;;;;;;;5093773;28;20079;-81
2021/08/14 12:59:21;;;;;;;8.85;6.82;;;;;;;;;;5094736;28;20044;-80
2021/08/14 13:01:56;;;;;;;8.40;6.35;;;;;;;;;;5095474;28;20040;-81
2021/08/14 13:04:24;;;;;;;8.55;5.68;;;;;;;;;;5095004;28;20127;-82
2021/08/14 13:06:51;;;;;;;12.70;6.70;;;;;;;;;;5099072;28;20454;-82
2021/08/14 13:09:19;;;;;;;8.38;6.13;;;;;;;;;;5106455;28;20408;-81
2021/08/14 13:11:46;;;;;;;6.40;5.53;;;;;;;;;;5095580;28;20146;-83
2021/08/14 13:14:13;;;;;;;8.43;5.97;;;;;;;;;;5095069;28;20040;-79
2021/08/14 13:16:39;;;;;;;6.32;5.20;;;;;;;;;;5093722;28;20451;-82
2021/08/14 13:19:07;;;;;;;8.18;6.00;;;;;;;;;;5093284;28;20052;-82
2021/08/14 13:21:36;;;;;;;8.02;5.43;;;;;;;;;;5092900;28;20071;-81
2021/08/14 13:24:03;;;;;;;8.57;5.82;;;;;;;;;;5093800;28;20097;-83
2021/08/14 13:26:30;;;;;;;9.18;5.68;;;;;;;;;;5094599;28;20052;-83
2021/08/14 13:28:56;;;;;;;8.55;5.47;;;;;;;;;;5101815;28;20074;-82
2021/08/14 13:31:23;;;;;;;8.15;5.60;;;;;;;;;;5091159;28;20041;-83
2021/08/14 13:33:50;;;;;;;7.65;5.90;;;;;;;;;;5088281;28;20074;-84
2021/08/14 13:36:18;;;;;;;9.55;6.18;;;;;;;;;;5082713;28;20044;-84
2021/08/14 13:38:46;;;;;;;9.75;6.30;;;;;;;;;;5082447;28;20053;-80
2021/08/14 13:41:12;;;;;;;8.55;5.32;;;;;;;;;;5103194;28;20036;-79
2021/08/14 13:43:39;;;;;;;8.05;6.07;;;;;;;;;;5098449;28;20044;-80
2021/08/14 13:46:06;;;;;;;7.30;5.57;;;;;;;;;;5097426;28;20020;-80
2021/08/14 13:48:33;;;;;;;7.82;6.00;;;;;;;;;;5097691;28;20081;-80
2021/08/14 13:50:59;;;;;;;6.88;5.78;;;;;;;;;;5096202;28;20040;-79
2021/08/14 13:53:26;;;;;;;7.75;5.95;;;;;;;;;;5098109;28;20041;-80
2021/08/14 13:55:54;;;;;;;8.25;5.70;;;;;;;;;;5088578;28;20069;-80
2021/08/14 13:58:21;;;;;;;6.90;5.38;;;;;;;;;;5093693;28;20063;-80
2021/08/14 14:00:48;;;;;;;17.63;6.40;;;;;;;;;;5088974;28;20044;-81
2021/08/14 14:03:14;;;;;;;10.05;6.00;;;;;;;;;;5088895;28;20048;-81
2021/08/14 14:05:41;;;;;;;9.60;5.82;;;;;;;;;;5096265;28;20048;-81
2021/08/14 14:08:08;;;;;;;8.25;6.07;;;;;;;;;;5097542;28;20074;-81
2021/08/14 14:10:35;;;;;;;8.40;5.63;;;;;;;;;;5095628;28;20097;-80
2021/08/14 14:13:04;;;;;;;10.25;5.47;;;;;;;;;;5096204;28;20074;-80
2021/08/14 14:15:31;;;;;;;8.48;5.70;;;;;;;;;;5092519;28;20086;-81
2021/08/14 14:17:57;;;;;;;9.27;5.70;;;;;;;;;;5096330;28;20087;-80
2021/08/14 14:20:24;;;;;;;10.00;5.88;;;;;;;;;;5095530;28;20080;-84
2021/08/14 14:22:51;;;;;;;7.55;5.18;;;;;;;;;;5096423;28;20501;-86
2021/08/14 14:25:18;;;;;;;8.35;5.70;;;;;;;;;;5094904;28;20051;-85
2021/08/14 14:27:48;;;;;;;7.80;5.30;;;;;;;;;;5095778;28;20052;-85
2021/08/14 14:30:17;;;;;;;8.70;6.38;;;;;;;;;;5096058;28;20641;-82
2021/08/14 14:32:44;;;;;;;8.05;5.28;;;;;;;;;;5083375;28;20377;-83
2021/08/14 14:35:12;;;;;;;8.85;5.85;;;;;;;;;;5091198;28;20120;-82
2021/08/14 14:37:39;;;;;;;8.10;5.53;;;;;;;;;;5098579;28;20079;-83
2021/08/14 14:40:10;;;;;;;8.85;5.43;;;;;;;;;;5111973;22;20459;-81
2021/08/14 14:42:36;;;;;;;10.93;7.03;;;;;;;;;;5106734;28;20052;-83
2021/08/14 14:45:04;;;;;;;9.57;6.28;;;;;;;;;;5103619;28;20051;-82
2021/08/14 14:47:32;;;;;;;8.48;5.60;;;;;;;;;;5104531;28;20044;-81
2021/08/14 14:49:58;;;;;;;9.75;5.75;;;;;;;;;;5101619;28;20048;-80
2021/08/14 14:52:25;;;;;;;9.48;5.50;;;;;;;;;;5084202;28;20048;-80
2021/08/14 14:54:52;;;;;;;9.63;6.32;;;;;;;;;;5084184;28;20075;-81